Marks Tey, United Kingdom
Current Conditions -  °F | °C
As of 2:50 PM on Friday 19 Dec 2014 (Local Time) from EGUW Reporting Station
Few Clouds Few Clouds  
Wind Chill: 37°   Ceiling: Unl
Heat Index: 45°   Visibility: 6mi
Dew Point: 36°   Wind: 17mph
Humidity: 71%   Direction: 270°W
Pressure: 29.97"   Gusts: NA
Location:  51.88°N, 0.76°E
Report Text: EGUW 191450Z 27015KT 9999 FEW028 07/02 Q1015 BLU NOSIG
Loading
Personal Weather Stations






























Interactive Weather Map New forecast layout! Learn more

10-Day Weather Forecast

Advertisements
Track Severe Weather on mobile